Carmel, Iowa
Current Conditions -  °F | °C
As of 8:15 AM on Thursday 18 Dec 2014 (Local Time) from KORC Reporting Station
Overcast Overcast  
Wind Chill: 14°   Ceiling: 5500
Heat Index: 21°   Visibility: 10mi
Dew Point: 18°   Wind: 6mph
Humidity: 86%   Direction: 110°ESE
Pressure: 30.23"   Gusts: NA
Location:  43.1918°N, 96.374°W
Report Text: KORC 181415Z AUTO 11005KT 10SM OVC055 M06/M08 A3023 RMK AO2
Loading
Personal Weather Stations






























Interactive Weather Map New forecast layout! Learn more

10-Day Weather Forecast

Advertisements
Track Severe Weather on mobile